Time;durP1;ratioP1;P1;durP2;ratioP2;P2;SDS_P1;SDS_P2;PMS_P1;PMS_P2;Temp;Humidity;BMP_temperature;BMP_pressure;BME280_temperature;BME280_humidity;BME280_pressure;Samples;Min_cycle;Max_cycle;Signal;HPM_P1;HPM_P2
2022/04/29 00:00:01;;;;;;;14.10;11.27;;;11.80;1.00;;;;;;5056948;28;20169;-80
2022/04/29 00:02:27;;;;;;;17.47;11.40;;;11.80;1.00;;;;;;5057253;28;20193;-79
2022/04/29 00:04:53;;;;;;;15.87;10.50;;;11.70;1.00;;;;;;5053199;28;20188;-82
2022/04/29 00:07:18;;;;;;;16.70;11.33;;;11.70;1.00;;;;;;5056598;28;20166;-80
2022/04/29 00:09:44;;;;;;;16.50;11.80;;;11.70;1.00;;;;;;5056485;28;20180;-79
2022/04/29 00:12:10;;;;;;;13.57;11.10;;;11.70;1.00;;;;;;5051475;28;20166;-80
2022/04/29 00:14:36;;;;;;;17.07;11.17;;;11.60;1.00;;;;;;5045193;28;20201;-82
2022/04/29 00:17:05;;;;;;;13.40;11.33;;;11.50;1.00;;;;;;5041262;28;20276;-82
2022/04/29 00:19:40;;;;;;;16.10;11.00;;;11.60;1.00;;;;;;5041689;28;20180;-84
2022/04/29 00:22:07;;;;;;;18.13;11.53;;;11.50;1.00;;;;;;5036669;28;20200;-81
2022/04/29 00:24:35;;;;;;;15.03;11.17;;;11.50;1.00;;;;;;5035847;28;20170;-81
2022/04/29 00:27:05;;;;;;;14.97;11.10;;;11.40;1.00;;;;;;5036875;28;20170;-83
2022/04/29 00:29:37;;;;;;;15.77;11.57;;;11.40;1.00;;;;;;5036745;28;20164;-83
2022/04/29 00:32:03;;;;;;;14.80;11.83;;;11.40;1.00;;;;;;5044335;28;20268;-80
2022/04/29 00:34:29;;;;;;;19.13;12.13;;;11.40;1.00;;;;;;5056197;28;20176;-83
2022/04/29 00:36:55;;;;;;;15.40;11.83;;;11.40;1.00;;;;;;5071570;28;20599;-82
2022/04/29 00:39:20;;;;;;;17.50;13.07;;;11.40;1.00;;;;;;5056389;28;20169;-83
2022/04/29 00:41:46;;;;;;;19.27;12.43;;;11.40;1.00;;;;;;5056301;28;20197;-81
2022/04/29 00:44:12;;;;;;;16.77;12.60;;;11.40;1.00;;;;;;5068070;28;20184;-82
2022/04/29 00:46:41;;;;;;;16.20;12.83;;;11.40;1.00;;;;;;5076940;28;20169;-84
2022/04/29 00:49:13;;;;;;;17.53;12.80;;;11.40;1.00;;;;;;5069312;28;20176;-84
2022/04/29 00:51:40;;;;;;;18.00;12.03;;;11.20;1.00;;;;;;5057587;28;20181;-79
2022/04/29 00:54:13;;;;;;;15.27;13.07;;;11.20;1.00;;;;;;5057100;28;20533;-81
2022/04/29 00:56:41;;;;;;;17.23;11.93;;;11.20;1.00;;;;;;5026590;28;20244;-85
2022/04/29 00:59:38;;;;;;;15.17;12.57;;;11.20;1.00;;;;;;5016536;28;20190;-79
2022/04/29 01:02:04;;;;;;;18.10;12.97;;;11.20;1.00;;;;;;5020441;28;20218;-80
2022/04/29 01:04:37;;;;;;;17.40;12.20;;;11.10;1.00;;;;;;5025381;28;20174;-83
2022/04/29 01:07:03;;;;;;;16.17;11.73;;;11.20;1.00;;;;;;5026705;28;20171;-78
2022/04/29 01:09:29;;;;;;;17.20;13.40;;;11.10;1.00;;;;;;5029658;28;20171;-80
2022/04/29 01:11:57;;;;;;;18.27;12.83;;;11.10;1.00;;;;;;5028722;28;20658;-79
2022/04/29 01:14:23;;;;;;;19.33;12.97;;;11.10;1.00;;;;;;5033190;28;20185;-78
2022/04/29 01:16:49;;;;;;;20.20;13.63;;;11.00;1.00;;;;;;5033600;28;20190;-84
2022/04/29 01:19:15;;;;;;;19.03;12.67;;;11.00;1.00;;;;;;5033322;28;20317;-82
2022/04/29 01:21:41;;;;;;;18.70;13.20;;;11.10;1.00;;;;;;5032045;28;20206;-83
2022/04/29 01:24:10;;;;;;;20.33;13.23;;;11.00;2.20;;;;;;5022161;28;20167;-83
2022/04/29 01:26:37;;;;;;;16.53;12.43;;;11.00;4.70;;;;;;5017325;28;20221;-84
2022/04/29 01:29:08;;;;;;;17.70;13.47;;;10.90;4.20;;;;;;5017815;28;20163;-84
2022/04/29 01:31:36;;;;;;;19.20;13.23;;;11.00;5.40;;;;;;5017517;28;20212;-83
2022/04/29 01:34:05;;;;;;;17.40;12.77;;;10.90;4.50;;;;;;5016728;28;20190;-84
2022/04/29 01:36:31;;;;;;;17.00;13.13;;;10.80;6.70;;;;;;5016049;28;20175;-84
2022/04/29 01:38:56;;;;;;;18.43;12.97;;;10.90;2.80;;;;;;5016478;28;20197;-82
2022/04/29 01:41:22;;;;;;;20.70;13.07;;;10.90;3.00;;;;;;5014423;28;20201;-83
2022/04/29 01:43:48;;;;;;;20.10;13.03;;;10.90;3.00;;;;;;5015640;28;20167;-83
2022/04/29 01:46:14;;;;;;;18.17;13.63;;;10.90;4.10;;;;;;5014921;28;20165;-80
2022/04/29 01:48:39;;;;;;;15.87;12.90;;;10.90;1.20;;;;;;5015306;28;20293;-85
2022/04/29 01:51:06;;;;;;;15.33;12.70;;;10.90;2.50;;;;;;5015108;28;20171;-84
2022/04/29 01:53:33;;;;;;;14.37;12.77;;;11.00;3.40;;;;;;5014764;28;20163;-84
2022/04/29 01:55:59;;;;;;;17.70;13.17;;;10.90;2.40;;;;;;5014047;28;20171;-82
2022/04/29 01:58:24;;;;;;;17.60;12.53;;;10.90;1.00;;;;;;5015984;28;20170;-84
2022/04/29 02:00:50;;;;;;;19.13;13.47;;;10.90;1.00;;;;;;5014989;28;20217;-84
2022/04/29 02:03:16;;;;;;;15.70;12.67;;;10.90;1.00;;;;;;5028357;28;20271;-82
2022/04/29 02:05:42;;;;;;;19.00;12.73;;;10.90;2.20;;;;;;5033332;28;20216;-84
2022/04/29 02:08:08;;;;;;;16.73;12.97;;;10.80;4.20;;;;;;5049441;28;20181;-84
2022/04/29 02:10:34;;;;;;;16.57;13.53;;;10.70;5.90;;;;;;5034123;28;20165;-83
2022/04/29 02:13:00;;;;;;;17.40;12.87;;;10.60;8.30;;;;;;5034190;28;20166;-85
2022/04/29 02:15:26;;;;;;;16.93;13.03;;;10.70;7.70;;;;;;5033860;28;20219;-81
2022/04/29 02:17:51;;;;;;;17.50;13.00;;;10.70;7.80;;;;;;5033856;28;20281;-81
2022/04/29 02:20:17;;;;;;;18.83;13.43;;;10.60;8.20;;;;;;5034289;28;20197;-83
2022/04/29 02:22:43;;;;;;;18.40;13.63;;;10.70;7.80;;;;;;5033163;28;20673;-81
2022/04/29 02:25:09;;;;;;;19.17;14.27;;;10.70;7.30;;;;;;5034116;28;20590;-83
2022/04/29 02:27:36;;;;;;;17.17;13.83;;;10.70;8.60;;;;;;5048854;28;20651;-79
2022/04/29 02:30:03;;;;;;;17.07;13.40;;;10.60;7.90;;;;;;5034679;28;20169;-80
2022/04/29 02:32:29;;;;;;;22.10;13.77;;;10.60;9.80;;;;;;5040315;28;20165;-84
2022/04/29 02:34:55;;;;;;;17.53;13.13;;;10.60;10.50;;;;;;5054565;28;20259;-84
2022/04/29 02:37:21;;;;;;;17.07;13.03;;;10.50;12.20;;;;;;5052982;28;20245;-83
2022/04/29 02:39:46;;;;;;;21.90;13.93;;;10.70;12.80;;;;;;5057191;28;20169;-84
2022/04/29 02:42:12;;;;;;;16.77;14.10;;;10.60;11.30;;;;;;5055748;28;20214;-84
2022/04/29 02:44:37;;;;;;;20.53;14.47;;;10.50;11.80;;;;;;5056840;28;20230;-84
2022/04/29 02:47:09;;;;;;;20.10;13.83;;;10.50;13.30;;;;;;5056622;28;20528;-83
2022/04/29 02:49:45;;;;;;;21.97;14.23;;;10.50;14.20;;;;;;5058393;28;20177;-82
2022/04/29 02:52:12;;;;;;;17.60;14.50;;;10.50;14.30;;;;;;5057394;28;20172;-82
2022/04/29 02:54:39;;;;;;;18.10;13.83;;;10.70;14.80;;;;;;5046285;28;20178;-84
2022/04/29 02:57:06;;;;;;;21.77;14.33;;;10.50;12.30;;;;;;5052912;28;20532;-80
2022/04/29 02:59:32;;;;;;;18.63;14.23;;;10.50;13.30;;;;;;5039802;28;20178;-84
2022/04/29 03:01:58;;;;;;;18.23;14.80;;;10.40;12.80;;;;;;5048821;28;20255;-84
2022/04/29 03:04:24;;;;;;;17.40;13.43;;;10.50;14.40;;;;;;5066969;28;20173;-81
2022/04/29 03:06:50;;;;;;;19.03;14.00;;;10.40;16.30;;;;;;5051447;28;20186;-82
2022/04/29 03:09:16;;;;;;;18.53;13.97;;;10.40;17.50;;;;;;5043015;28;20173;-82
2022/04/29 03:11:42;;;;;;;18.97;15.03;;;10.40;18.00;;;;;;5047317;28;20158;-83
2022/04/29 03:14:08;;;;;;;17.37;14.00;;;10.40;18.00;;;;;;5057086;28;20154;-81
2022/04/29 03:16:34;;;;;;;20.07;14.13;;;10.50;17.30;;;;;;5056458;28;20216;-82
2022/04/29 03:19:00;;;;;;;19.17;14.13;;;10.50;16.10;;;;;;5047860;28;20177;-77
2022/04/29 03:21:26;;;;;;;18.73;14.47;;;10.50;15.90;;;;;;5048263;28;20208;-78
2022/04/29 03:23:52;;;;;;;16.37;13.07;;;10.40;15.90;;;;;;5046019;28;20210;-81
2022/04/29 03:26:17;;;;;;;19.30;13.60;;;10.40;16.50;;;;;;5046738;28;20170;-79
2022/04/29 03:28:43;;;;;;;20.13;14.70;;;10.40;20.60;;;;;;5052773;28;20185;-77
2022/04/29 03:31:09;;;;;;;17.27;15.03;;;10.40;22.20;;;;;;5052643;28;20196;-79
2022/04/29 03:33:36;;;;;;;20.63;14.27;;;10.40;20.30;;;;;;5050944;28;20170;-80
2022/04/29 03:36:01;;;;;;;23.20;14.37;;;10.30;19.70;;;;;;5064900;28;20166;-80
2022/04/29 03:38:27;;;;;;;18.73;14.03;;;10.30;20.50;;;;;;5041755;28;20170;-82
2022/04/29 03:40:53;;;;;;;19.57;13.67;;;10.20;22.30;;;;;;5045959;28;20234;-79
2022/04/29 03:43:20;;;;;;;18.43;14.67;;;10.10;24.60;;;;;;5052650;28;20236;-82
2022/04/29 03:45:46;;;;;;;18.83;14.53;;;10.10;25.60;;;;;;5050823;28;20166;-78
2022/04/29 03:48:12;;;;;;;17.37;13.97;;;10.10;27.20;;;;;;5053154;28;20200;-79
2022/04/29 03:50:38;;;;;;;24.53;13.80;;;10.10;27.10;;;;;;5053270;28;20241;-81
2022/04/29 03:53:06;;;;;;;23.60;14.17;;;10.20;26.20;;;;;;5053263;28;20154;-81
2022/04/29 03:55:35;;;;;;;20.40;14.27;;;10.20;24.60;;;;;;5055994;28;20177;-83
2022/04/29 03:58:04;;;;;;;17.87;14.63;;;10.20;23.70;;;;;;5056152;28;20158;-80
2022/04/29 04:00:32;;;;;;;18.67;14.50;;;10.20;24.60;;;;;;5055989;28;20174;-81
2022/04/29 04:03:05;;;;;;;21.20;13.87;;;10.20;24.30;;;;;;5053981;28;20162;-83
2022/04/29 04:05:31;;;;;;;17.63;14.23;;;10.10;23.90;;;;;;5039618;28;20201;-83
2022/04/29 04:08:00;;;;;;;23.57;15.10;;;10.10;27.10;;;;;;5054791;28;20216;-84
2022/04/29 04:10:26;;;;;;;21.60;14.00;;;10.10;26.00;;;;;;5038695;28;20158;-82
2022/04/29 04:12:52;;;;;;;22.30;14.27;;;10.10;25.20;;;;;;5038286;28;20702;-83
2022/04/29 04:15:23;;;;;;;19.17;15.33;;;10.20;26.60;;;;;;5039391;28;20193;-84
2022/04/29 04:17:49;;;;;;;22.00;14.73;;;10.10;28.50;;;;;;5037826;28;20229;-84
2022/04/29 04:20:20;;;;;;;21.13;14.27;;;10.10;30.00;;;;;;5037423;28;20165;-79
2022/04/29 04:22:49;;;;;;;21.30;14.20;;;10.10;27.00;;;;;;5036712;28;20170;-81
2022/04/29 04:25:16;;;;;;;20.80;13.90;;;10.20;24.60;;;;;;5037529;28;20262;-83
2022/04/29 04:27:45;;;;;;;22.07;14.40;;;10.20;23.10;;;;;;5052374;28;20185;-82
2022/04/29 04:30:17;;;;;;;22.27;12.67;;;10.30;23.40;;;;;;5035932;28;20173;-83
2022/04/29 04:32:45;;;;;;;19.33;13.00;;;10.30;21.90;;;;;;5036872;28;20177;-83
2022/04/29 04:35:11;;;;;;;21.97;13.90;;;10.10;21.40;;;;;;5036990;28;20697;-82
2022/04/29 04:37:38;;;;;;;22.60;13.50;;;10.10;21.10;;;;;;5036859;28;20178;-84
2022/04/29 04:40:30;;;;;;;24.27;13.80;;;10.10;21.00;;;;;;5056175;28;20256;-80
2022/04/29 04:42:57;;;;;;;20.00;13.00;;;10.00;22.00;;;;;;5054371;28;20158;-81
2022/04/29 04:45:23;;;;;;;18.90;12.77;;;9.90;25.30;;;;;;5041512;28;20196;-82
2022/04/29 04:47:49;;;;;;;20.20;13.50;;;9.90;25.90;;;;;;5036120;28;20169;-80
2022/04/29 04:50:15;;;;;;;19.03;13.60;;;9.90;25.20;;;;;;5036438;28;20503;-81
2022/04/29 04:52:46;;;;;;;21.03;13.77;;;9.90;28.00;;;;;;5019177;28;20174;-82
2022/04/29 04:55:12;;;;;;;24.83;16.40;;;9.90;27.20;;;;;;5031444;28;20174;-83
2022/04/29 04:57:38;;;;;;;21.93;14.57;;;10.00;26.80;;;;;;5016221;28;20186;-83
2022/04/29 05:00:04;;;;;;;19.80;14.13;;;10.00;25.80;;;;;;5016363;28;20174;-83
2022/04/29 05:02:30;;;;;;;23.57;13.93;;;10.00;24.50;;;;;;5015495;28;20674;-80
2022/04/29 05:04:57;;;;;;;19.83;13.80;;;10.10;24.60;;;;;;5034475;28;20252;-84
2022/04/29 05:07:23;;;;;;;19.47;13.33;;;10.00;24.10;;;;;;5034917;28;20217;-82
2022/04/29 05:09:48;;;;;;;21.50;13.27;;;9.90;27.00;;;;;;5036100;28;20177;-84
2022/04/29 05:12:14;;;;;;;18.13;13.67;;;10.00;27.90;;;;;;5034252;28;20268;-80
2022/04/29 05:14:40;;;;;;;21.90;13.83;;;10.00;25.70;;;;;;5036816;28;20222;-80
2022/04/29 05:17:06;;;;;;;18.73;13.50;;;9.90;25.80;;;;;;5035585;28;20224;-82
2022/04/29 05:19:31;;;;;;;17.50;13.50;;;9.90;27.70;;;;;;5034796;28;20189;-80
2022/04/29 05:21:57;;;;;;;27.20;13.70;;;9.80;28.60;;;;;;5039448;28;20206;-79
2022/04/29 05:24:22;;;;;;;20.83;12.50;;;9.80;27.10;;;;;;5043008;28;20192;-82
2022/04/29 05:26:48;;;;;;;23.43;13.50;;;9.70;28.50;;;;;;5047941;28;20180;-83
2022/04/29 05:29:16;;;;;;;21.87;13.37;;;9.80;30.40;;;;;;5044003;28;20173;-81
2022/04/29 05:31:44;;;;;;;24.80;14.47;;;9.90;29.00;;;;;;5039639;28;20192;-81
2022/04/29 05:34:10;;;;;;;18.83;13.80;;;9.80;30.10;;;;;;5055747;28;20237;-80
2022/04/29 05:36:36;;;;;;;20.83;13.53;;;9.80;28.60;;;;;;5056797;28;20177;-81
2022/04/29 05:44:30;;;;;;;22.97;13.47;;;9.90;27.90;;;;;;5057355;28;20207;-85
2022/04/29 05:46:58;;;;;;;21.47;13.27;;;9.80;27.60;;;;;;5045969;28;20209;-84
2022/04/29 05:49:30;;;;;;;19.07;13.80;;;9.90;28.80;;;;;;5044419;28;20219;-83
2022/04/29 05:51:59;;;;;;;21.37;13.70;;;9.90;27.70;;;;;;5039771;28;20181;-83
2022/04/29 05:54:26;;;;;;;22.87;14.10;;;9.90;28.90;;;;;;5051139;28;20177;-83
2022/04/29 05:57:04;;;;;;;22.27;13.60;;;9.90;27.60;;;;;;5033557;28;20200;-83
2022/04/29 05:59:44;;;;;;;22.70;14.83;;;10.00;27.40;;;;;;5034480;28;20217;-79
2022/04/29 06:02:10;;;;;;;25.97;13.77;;;10.20;25.20;;;;;;5034687;28;20740;-84
2022/04/29 06:04:36;;;;;;;26.10;15.07;;;10.30;22.70;;;;;;5027046;28;20167;-83
2022/04/29 06:07:02;;;;;;;21.07;15.03;;;10.40;19.00;;;;;;5034010;28;20181;-84
2022/04/29 06:09:27;;;;;;;24.97;13.63;;;10.50;15.80;;;;;;5033735;28;20178;-82
2022/04/29 06:11:53;;;;;;;20.23;12.77;;;10.60;10.90;;;;;;5032248;28;20247;-81
2022/04/29 06:14:19;;;;;;;24.87;14.43;;;10.50;8.30;;;;;;5034073;28;20201;-81
2022/04/29 06:16:46;;;;;;;18.20;13.37;;;10.50;9.90;;;;;;5033495;28;20190;-83
2022/04/29 06:19:12;;;;;;;18.77;13.90;;;10.30;13.50;;;;;;5028464;28;20517;-81
2022/04/29 06:21:40;;;;;;;19.47;13.87;;;10.30;14.50;;;;;;5032423;28;20662;-83
2022/04/29 06:24:07;;;;;;;22.23;13.40;;;10.20;12.80;;;;;;5034335;28;20618;-82
2022/04/29 06:26:33;;;;;;;22.33;13.87;;;10.20;13.20;;;;;;5032531;28;20369;-81
2022/04/29 06:28:59;;;;;;;25.80;13.93;;;10.20;14.00;;;;;;5032679;28;20161;-80
2022/04/29 06:31:25;;;;;;;23.57;14.77;;;10.10;13.90;;;;;;5033352;28;20188;-84
2022/04/29 06:33:52;;;;;;;23.30;14.33;;;10.20;14.50;;;;;;5032300;28;20655;-80
2022/04/29 06:36:17;;;;;;;23.73;13.90;;;10.20;15.10;;;;;;5032188;28;20260;-83
2022/04/29 06:38:43;;;;;;;24.97;13.40;;;10.20;14.30;;;;;;5033625;28;20257;-81
2022/04/29 06:41:09;;;;;;;21.63;13.73;;;10.20;12.30;;;;;;5033172;28;20603;-81
2022/04/29 06:43:34;;;;;;;18.67;14.23;;;10.20;12.60;;;;;;5033733;28;20272;-83
2022/04/29 06:46:00;;;;;;;20.07;13.83;;;10.40;11.40;;;;;;5034003;28;20170;-81
2022/04/29 06:48:26;;;;;;;26.13;14.30;;;10.20;11.60;;;;;;5034048;28;20508;-81
2022/04/29 06:50:52;;;;;;;21.20;13.67;;;10.30;11.10;;;;;;5034031;28;20216;-79
2022/04/29 06:53:18;;;;;;;20.70;13.43;;;10.30;11.60;;;;;;5034336;28;20252;-82
2022/04/29 06:55:44;;;;;;;21.00;14.37;;;10.40;12.10;;;;;;5034128;28;20161;-79
2022/04/29 06:58:09;;;;;;;20.70;14.53;;;10.40;10.20;;;;;;5033799;28;20252;-79
2022/04/29 07:00:37;;;;;;;19.23;14.53;;;10.40;7.40;;;;;;5033636;28;20173;-83
2022/04/29 07:03:03;;;;;;;19.63;13.63;;;10.40;7.40;;;;;;5033749;28;20170;-80
2022/04/29 07:05:32;;;;;;;17.60;13.57;;;10.40;6.10;;;;;;5034497;28;20244;-80
2022/04/29 07:07:59;;;;;;;17.73;13.00;;;10.30;10.20;;;;;;5041351;28;20165;-78
2022/04/29 07:10:25;;;;;;;20.83;14.50;;;10.30;10.60;;;;;;5047107;28;20168;-79
2022/04/29 07:12:50;;;;;;;18.17;13.40;;;10.40;10.30;;;;;;5051752;28;20181;-81
2022/04/29 07:15:17;;;;;;;26.07;13.93;;;10.50;10.60;;;;;;5048560;28;20166;-80
2022/04/29 07:17:44;;;;;;;22.33;14.67;;;10.50;7.10;;;;;;5045643;28;20214;-83
2022/04/29 07:20:14;;;;;;;21.40;14.33;;;10.50;6.00;;;;;;5037873;28;20180;-79
2022/04/29 07:22:41;;;;;;;21.40;14.20;;;10.70;7.00;;;;;;5036236;28;20201;-81
2022/04/29 07:25:11;;;;;;;21.47;14.43;;;10.70;1.90;;;;;;5035034;28;20188;-80
2022/04/29 07:27:40;;;;;;;25.93;14.47;;;10.60;1.00;;;;;;5033948;28;20182;-83
2022/04/29 07:30:08;;;;;;;23.97;14.73;;;10.70;1.00;;;;;;5032238;28;20256;-79
2022/04/29 07:33:05;;;;;;;25.97;15.10;;;10.70;1.00;;;;;;5039498;28;20178;-82
2022/04/29 07:43:46;;;;;;;20.07;14.23;;;10.80;1.00;;;;;;5041327;28;20207;-84
2022/04/29 07:46:12;;;;;;;21.63;14.37;;;10.80;1.00;;;;;;5039789;28;20180;-84
2022/04/29 07:48:39;;;;;;;19.37;14.10;;;10.80;1.00;;;;;;5036918;28;20186;-82
2022/04/29 07:51:05;;;;;;;19.23;14.87;;;10.70;1.00;;;;;;5037665;28;20248;-80
2022/04/29 07:53:30;;;;;;;21.50;16.10;;;10.70;1.00;;;;;;5038156;28;20166;-79
2022/04/29 07:55:56;;;;;;;18.70;13.80;;;10.60;1.00;;;;;;5038298;28;20174;-83
2022/04/29 07:58:22;;;;;;;25.13;14.87;;;10.60;1.00;;;;;;5037741;28;20224;-83
2022/04/29 08:00:48;;;;;;;22.80;15.70;;;10.60;3.20;;;;;;5037373;28;20287;-81
2022/04/29 08:03:14;;;;;;;24.90;15.83;;;10.60;4.10;;;;;;5039687;28;20237;-79
2022/04/29 08:05:39;;;;;;;19.47;15.63;;;10.60;3.20;;;;;;5041704;28;20190;-81
2022/04/29 08:08:05;;;;;;;24.47;16.20;;;10.70;1.00;;;;;;5041615;28;20192;-81
2022/04/29 08:10:32;;;;;;;21.60;15.90;;;10.70;1.00;;;;;;5040901;28;20169;-81
2022/04/29 08:12:59;;;;;;;22.03;15.93;;;10.60;1.00;;;;;;5042923;28;20162;-81
2022/04/29 08:15:28;;;;;;;21.27;15.13;;;10.70;1.00;;;;;;5041054;28;20204;-81
2022/04/29 08:17:54;;;;;;;21.77;15.47;;;10.80;1.00;;;;;;5042229;28;20258;-80
2022/04/29 08:20:20;;;;;;;20.67;15.67;;;10.80;1.00;;;;;;5037550;28;20201;-83
2022/04/29 08:22:47;;;;;;;23.87;15.40;;;10.90;1.00;;;;;;5037612;28;20169;-82
2022/04/29 08:25:17;;;;;;;24.37;15.70;;;11.00;1.00;;;;;;5037293;28;20166;-83
2022/04/29 08:27:47;;;;;;;20.40;14.83;;;10.90;1.00;;;;;;5039044;28;20173;-83
2022/04/29 08:30:14;;;;;;;21.10;14.00;;;10.90;1.00;;;;;;5036776;28;20232;-82
2022/04/29 08:32:43;;;;;;;19.50;14.63;;;10.80;1.00;;;;;;5036801;28;20169;-82
2022/04/29 08:35:09;;;;;;;22.37;15.10;;;10.60;3.70;;;;;;5038402;28;20245;-79
2022/04/29 08:37:37;;;;;;;24.37;14.23;;;10.50;9.20;;;;;;5037370;28;20165;-82
2022/04/29 08:40:04;;;;;;;19.70;14.83;;;10.50;7.70;;;;;;5038019;28;20162;-84
2022/04/29 08:42:35;;;;;;;19.67;14.57;;;10.60;9.60;;;;;;5036941;28;20201;-82
2022/04/29 08:45:02;;;;;;;23.90;14.10;;;10.60;5.50;;;;;;5035200;28;20177;-83
2022/04/29 08:47:27;;;;;;;19.43;14.43;;;10.50;6.60;;;;;;5036861;28;20170;-82
2022/04/29 08:49:54;;;;;;;20.17;15.40;;;10.50;8.40;;;;;;5036012;28;20189;-81
2022/04/29 08:52:20;;;;;;;23.63;16.10;;;10.50;8.50;;;;;;5036339;28;20633;-78
2022/04/29 09:00:22;;;;;;;22.23;18.00;;;10.60;8.00;;;;;;5046225;28;20185;-80
2022/04/29 09:02:47;;;;;;;28.10;18.17;;;10.70;2.70;;;;;;5039540;28;20288;-80
2022/04/29 09:05:13;;;;;;;30.43;18.10;;;10.70;1.10;;;;;;5037511;28;20177;-82
2022/04/29 09:07:54;;;;;;;23.17;17.50;;;10.70;1.00;;;;;;5036300;28;20637;-80
2022/04/29 09:10:21;;;;;;;24.23;18.33;;;10.70;1.00;;;;;;5036128;28;20212;-81
2022/04/29 09:12:47;;;;;;;26.37;18.77;;;10.90;1.00;;;;;;5036367;28;20191;-83
2022/04/29 09:15:14;;;;;;;32.70;19.33;;;11.00;1.00;;;;;;5036027;28;20166;-82
2022/04/29 09:17:51;;;;;;;25.03;17.30;;;11.10;1.00;;;;;;5035692;28;20204;-82
2022/04/29 09:20:20;;;;;;;27.97;16.10;;;11.20;1.00;;;;;;5034183;28;20252;-80
2022/04/29 09:22:52;;;;;;;24.97;16.00;;;11.10;1.00;;;;;;5035093;28;20277;-80
2022/04/29 09:25:18;;;;;;;24.10;15.10;;;11.20;1.00;;;;;;5035410;28;20173;-83
2022/04/29 09:28:00;;;;;;;24.20;15.83;;;11.30;1.00;;;;;;5035044;28;20188;-82
2022/04/29 09:30:41;;;;;;;20.63;15.30;;;11.20;1.00;;;;;;5034916;28;20165;-81
2022/04/29 09:33:19;;;;;;;23.37;15.27;;;11.30;1.00;;;;;;5035176;28;20553;-78
2022/04/29 09:35:45;;;;;;;27.70;15.73;;;11.10;1.00;;;;;;5034812;28;20176;-82
2022/04/29 09:40:59;;;;;;;24.70;14.33;;;11.20;1.00;;;;;;5040352;28;20236;-81
2022/04/29 09:43:42;;;;;;;24.07;15.63;;;11.20;1.00;;;;;;5041172;28;20216;-81
2022/04/29 09:46:38;;;;;;;23.07;15.30;;;11.20;1.00;;;;;;5040039;28;20520;-83
2022/04/29 09:49:06;;;;;;;24.50;16.37;;;11.10;1.00;;;;;;5026532;28;20193;-78
2022/04/29 09:51:50;;;;;;;26.67;15.83;;;11.00;1.00;;;;;;5034959;28;20245;-82
2022/04/29 09:54:27;;;;;;;21.93;14.63;;;11.00;1.00;;;;;;5033263;28;20184;-79
2022/04/29 09:57:12;;;;;;;24.60;17.03;;;11.10;1.00;;;;;;5033293;28;20200;-82
2022/04/29 09:59:40;;;;;;;24.27;16.03;;;11.20;1.00;;;;;;5034877;28;20625;-80
2022/04/29 10:02:07;;;;;;;23.80;15.07;;;11.40;1.00;;;;;;5032138;28;20762;-82
2022/04/29 10:04:35;;;;;;;23.87;15.07;;;11.40;1.00;;;;;;5035644;28;20273;-79
2022/04/29 10:07:08;;;;;;;26.87;16.83;;;11.50;1.00;;;;;;5034532;28;20664;-80
2022/04/29 10:09:38;;;;;;;23.37;15.77;;;11.60;1.00;;;;;;5034613;28;20164;-82
2022/04/29 10:12:10;;;;;;;21.70;16.07;;;11.70;1.00;;;;;;5034617;28;20625;-81
2022/04/29 10:14:37;;;;;;;22.47;15.97;;;11.80;1.00;;;;;;5034833;28;20165;-82
2022/04/29 10:23:12;;;;;;;18.53;15.60;;;12.20;1.00;;;;;;5034232;28;20189;-78
2022/04/29 10:25:47;;;;;;;24.60;14.90;;;12.10;1.00;;;;;;5033722;28;20166;-80
2022/04/29 10:28:19;;;;;;;25.00;16.83;;;12.30;1.00;;;;;;5032302;28;20180;-79
2022/04/29 10:30:45;;;;;;;20.90;15.73;;;12.20;1.00;;;;;;5030211;28;20186;-80
2022/04/29 10:33:17;;;;;;;22.63;15.67;;;12.20;1.00;;;;;;5033668;28;20169;-81
2022/04/29 10:35:43;;;;;;;22.47;15.87;;;12.20;1.00;;;;;;5033434;28;20275;-83
2022/04/29 10:38:16;;;;;;;18.77;15.57;;;12.30;1.00;;;;;;5033417;28;20173;-80
2022/04/29 10:40:44;;;;;;;22.77;16.63;;;12.30;1.00;;;;;;5034423;28;20664;-83
2022/04/29 10:43:13;;;;;;;22.20;15.53;;;12.30;1.00;;;;;;5034890;28;20173;-84
2022/04/29 10:46:03;;;;;;;22.00;16.67;;;12.30;1.00;;;;;;5034353;28;20196;-81
2022/04/29 10:48:33;;;;;;;24.73;14.90;;;12.50;1.00;;;;;;5035772;28;20169;-82
2022/04/29 10:51:20;;;;;;;22.90;16.67;;;12.70;1.00;;;;;;5033433;28;20657;-83
2022/04/29 10:53:50;;;;;;;31.83;17.50;;;12.70;1.00;;;;;;5034409;28;20173;-82
2022/04/29 10:56:31;;;;;;;24.63;16.33;;;12.80;1.00;;;;;;5033342;28;20197;-80
2022/04/29 10:59:12;;;;;;;20.90;15.83;;;12.70;1.00;;;;;;5034825;28;20196;-82
2022/04/29 11:01:46;;;;;;;24.33;16.20;;;12.70;1.00;;;;;;5035244;28;20208;-84
2022/04/29 11:04:15;;;;;;;22.63;15.37;;;12.80;1.00;;;;;;5035394;28;20569;-82
2022/04/29 11:06:44;;;;;;;23.63;17.00;;;12.80;1.00;;;;;;5035360;28;20707;-82
2022/04/29 11:09:28;;;;;;;23.77;16.47;;;12.90;1.00;;;;;;5034594;28;20174;-80
2022/04/29 11:11:58;;;;;;;22.97;16.80;;;13.00;1.00;;;;;;5034248;28;20169;-82
2022/04/29 11:14:24;;;;;;;24.20;16.07;;;13.20;1.00;;;;;;5036536;28;20249;-80
2022/04/29 11:16:52;;;;;;;28.83;17.50;;;13.30;1.00;;;;;;5037911;28;20190;-82
2022/04/29 11:19:28;;;;;;;22.30;17.50;;;13.50;1.00;;;;;;5036584;28;20244;-82
2022/04/29 11:24:45;;;;;;;23.63;16.67;;;13.80;1.00;;;;;;5038121;28;20292;-83
2022/04/29 11:27:11;;;;;;;24.80;17.53;;;14.00;1.00;;;;;;5037484;28;20627;-84
2022/04/29 11:29:46;;;;;;;19.70;15.53;;;13.90;1.00;;;;;;5037569;28;20175;-83
2022/04/29 11:32:13;;;;;;;23.33;17.13;;;14.00;1.00;;;;;;5037604;28;20180;-83
2022/04/29 11:35:14;;;;;;;24.97;17.37;;;14.00;1.00;;;;;;5038881;28;20246;-83
2022/04/29 11:37:40;;;;;;;22.47;17.80;;;14.20;1.00;;;;;;4997105;28;20272;-82
2022/04/29 11:40:09;;;;;;;24.07;17.23;;;14.40;1.00;;;;;;5033311;28;20185;-81
2022/04/29 11:42:36;;;;;;;25.43;17.63;;;14.50;1.00;;;;;;5043245;28;20208;-83
2022/04/29 11:45:10;;;;;;;21.80;16.50;;;14.40;1.00;;;;;;5040335;28;20577;-83
2022/04/29 11:47:36;;;;;;;25.73;16.90;;;14.40;1.00;;;;;;5037304;28;20159;-80
2022/04/29 11:50:06;;;;;;;22.70;16.23;;;14.30;1.00;;;;;;5040297;28;20176;-78
2022/04/29 11:52:34;;;;;;;22.80;17.43;;;14.40;1.00;;;;;;5046452;28;20202;-81
2022/04/29 11:55:11;;;;;;;22.07;15.47;;;14.30;1.00;;;;;;5049770;28;20182;-79
2022/04/29 11:57:45;;;;;;;25.97;17.70;;;14.30;1.00;;;;;;5039305;28;20162;-82
2022/04/29 12:00:33;;;;;;;24.50;17.20;;;14.50;1.00;;;;;;5037991;28;20187;-82
2022/04/29 12:03:00;;;;;;;25.20;17.47;;;14.70;99.90;;;;;;5036914;28;20673;-82
2022/04/29 12:05:28;;;;;;;22.70;16.20;;;14.70;99.90;;;;;;5032132;28;20653;-81
2022/04/29 12:07:54;;;;;;;30.83;18.53;;;14.60;99.90;;;;;;5017420;28;20186;-83
2022/04/29 12:10:23;;;;;;;25.27;18.83;;;14.60;99.90;;;;;;5017973;28;20152;-80
2022/04/29 12:12:53;;;;;;;20.33;16.03;;;14.80;99.90;;;;;;5017921;28;20162;-82
2022/04/29 12:15:20;;;;;;;27.67;18.03;;;15.00;99.90;;;;;;5018000;28;20251;-84
2022/04/29 12:17:48;;;;;;;23.03;17.37;;;15.00;99.90;;;;;;5016995;28;20205;-80
2022/04/29 12:20:18;;;;;;;26.77;17.50;;;15.30;99.90;;;;;;5017308;28;20170;-80
2022/04/29 12:22:47;;;;;;;25.50;17.67;;;15.40;99.90;;;;;;5017482;28;20234;-79
2022/04/29 12:25:24;;;;;;;24.17;17.53;;;15.20;14.10;;;;;;5031398;28;20178;-80
2022/04/29 12:28:10;;;;;;;28.10;18.00;;;15.40;1.00;;;;;;5017341;28;20247;-83
2022/04/29 12:36:13;;;;;;;25.67;17.80;;;15.40;1.00;;;;;;5028621;28;20193;-82
2022/04/29 12:38:41;;;;;;;26.63;18.17;;;15.20;73.70;;;;;;5037567;28;20173;-83
2022/04/29 12:41:34;;;;;;;21.97;18.03;;;15.30;99.90;;;;;;5036708;28;20232;-83
2022/04/29 12:47:02;;;;;;;24.00;19.00;;;15.40;82.80;;;;;;5037015;28;20208;-81
2022/04/29 12:49:28;;;;;;;27.97;17.33;;;15.50;1.00;;;;;;5035365;28;20177;-80
2022/04/29 12:52:00;;;;;;;25.00;16.80;;;15.40;1.00;;;;;;5036049;28;20260;-82
2022/04/29 12:54:27;;;;;;;24.87;17.63;;;15.30;1.00;;;;;;5036745;28;20170;-80
2022/04/29 12:56:53;;;;;;;26.33;17.83;;;15.50;1.00;;;;;;5036569;28;20170;-82
2022/04/29 12:59:25;;;;;;;26.50;17.10;;;15.50;1.00;;;;;;5036738;28;20247;-81
2022/04/29 13:01:54;;;;;;;22.87;18.37;;;15.30;92.40;;;;;;5035794;28;20214;-83
2022/04/29 13:04:20;;;;;;;23.67;17.93;;;15.30;91.60;;;;;;5036673;28;20180;-84
2022/04/29 13:06:45;;;;;;;26.97;18.50;;;15.40;14.20;;;;;;5037536;28;20185;-83
2022/04/29 13:09:11;;;;;;;24.57;15.93;;;15.40;1.00;;;;;;5036673;28;20515;-83
2022/04/29 13:11:37;;;;;;;21.57;15.60;;;15.30;1.00;;;;;;5037273;28;20629;-82
2022/04/29 13:14:03;;;;;;;29.43;18.40;;;15.20;1.00;;;;;;5043409;28;20169;-83
2022/04/29 13:16:29;;;;;;;22.80;18.23;;;15.20;1.00;;;;;;5054738;28;20204;-83
2022/04/29 13:18:56;;;;;;;26.07;18.03;;;15.40;1.00;;;;;;5054729;28;20181;-79